CFG5JH EDDF-EKCH
Flight info
| Callsign | CFG5JH |
|---|---|
| Flight time | 1h 4m |
| Altitude | 39000 |
| Route | MARUN3W/25C MARUN Y150 TOLGI DCT SAS DCT MAKEL N851 GESKA Z711 MONAK |
| Aircraft | B742/H-SDFHIRWXY/L |
Departure
| Time | 2026-05-04 18:40 |
|---|---|
| Airport | Frankfurt Main Airport (EDDF) |
Arrival
| Time | 2026-05-04 19:44 |
|---|---|
| Airport | Copenhagen Kastrup Airport (EKCH) |
| Time | Latitude | Longitude | Altitude | Speed | Heading |
|---|---|---|---|---|---|
| 2026-05-04 18:09 | 50.04752 | 8.57456 | 377 ft | 0 kts | 46° |
| 2026-05-04 18:26 | 50.04749 | 8.57452 | 377 ft | 2 kts | 45° |
| 2026-05-04 18:27 | 50.04738 | 8.57437 | 376 ft | 2 kts | 36° |
| 2026-05-04 18:27 | 50.04725 | 8.57425 | 376 ft | 2 kts | 28° |
| 2026-05-04 18:27 | 50.04711 | 8.57415 | 376 ft | 2 kts | 21° |
| 2026-05-04 18:27 | 50.04698 | 8.57408 | 376 ft | 2 kts | 14° |
| 2026-05-04 18:28 | 50.04683 | 8.57403 | 376 ft | 2 kts | 14° |
| 2026-05-04 18:28 | 50.04669 | 8.57397 | 376 ft | 2 kts | 15° |
| 2026-05-04 18:28 | 50.04654 | 8.57391 | 376 ft | 2 kts | 15° |
| 2026-05-04 18:28 | 50.04640 | 8.57385 | 375 ft | 2 kts | 15° |
| 2026-05-04 18:29 | 50.04625 | 8.57379 | 375 ft | 2 kts | 15° |
| 2026-05-04 18:29 | 50.04611 | 8.57373 | 375 ft | 2 kts | 22° |
| 2026-05-04 18:29 | 50.04598 | 8.57362 | 375 ft | 2 kts | 34° |
| 2026-05-04 18:29 | 50.04586 | 8.57348 | 375 ft | 2 kts | 44° |
| 2026-05-04 18:30 | 50.04568 | 8.57311 | 375 ft | 2 kts | 64° |
| 2026-05-04 18:30 | 50.04563 | 8.57294 | 375 ft | 0 kts | 72° |
| 2026-05-04 18:30 | 50.04562 | 8.57292 | 375 ft | 0 kts | 72° |
| 2026-05-04 18:32 | 50.04563 | 8.57292 | 375 ft | 0 kts | 72° |
| 2026-05-04 18:33 | 50.04566 | 8.57309 | 375 ft | 3 kts | 70° |
| 2026-05-04 18:33 | 50.04580 | 8.57366 | 375 ft | 6 kts | 70° |
| 2026-05-04 18:33 | 50.04599 | 8.57443 | 373 ft | 8 kts | 69° |
| 2026-05-04 18:33 | 50.04620 | 8.57533 | 373 ft | 8 kts | 70° |
| 2026-05-04 18:34 | 50.04641 | 8.57619 | 373 ft | 8 kts | 70° |
| 2026-05-04 18:34 | 50.04659 | 8.57694 | 374 ft | 6 kts | 70° |
| 2026-05-04 18:34 | 50.04674 | 8.57761 | 374 ft | 6 kts | 70° |
| 2026-05-04 18:34 | 50.04689 | 8.57820 | 374 ft | 5 kts | 70° |
| 2026-05-04 18:35 | 50.04699 | 8.57863 | 375 ft | 2 kts | 71° |
| 2026-05-04 18:35 | 50.04705 | 8.57903 | 376 ft | 5 kts | 90° |
| 2026-05-04 18:35 | 50.04689 | 8.57959 | 376 ft | 5 kts | 134° |
| 2026-05-04 18:35 | 50.04665 | 8.57984 | 376 ft | 1 kts | 156° |
| 2026-05-04 18:36 | 50.04662 | 8.57986 | 376 ft | 0 kts | 158° |
| 2026-05-04 18:36 | 50.04650 | 8.57993 | 377 ft | 4 kts | 159° |
| 2026-05-04 18:36 | 50.04607 | 8.58019 | 377 ft | 7 kts | 159° |
| 2026-05-04 18:36 | 50.04560 | 8.58046 | 377 ft | 7 kts | 160° |
| 2026-05-04 18:37 | 50.04514 | 8.58072 | 377 ft | 6 kts | 160° |
| 2026-05-04 18:37 | 50.04495 | 8.58083 | 377 ft | 0 kts | 160° |
| 2026-05-04 18:38 | 50.04488 | 8.58087 | 376 ft | 4 kts | 160° |
| 2026-05-04 18:38 | 50.04442 | 8.58112 | 376 ft | 8 kts | 165° |
| 2026-05-04 18:39 | 50.04385 | 8.58105 | 374 ft | 8 kts | 212° |
| 2026-05-04 18:39 | 50.04352 | 8.58026 | 374 ft | 9 kts | 251° |
| 2026-05-04 18:39 | 50.04299 | 8.57797 | 369 ft | 50 kts | 251° |
| 2026-05-04 18:39 | 50.04084 | 8.56905 | 361 ft | 124 kts | 250° |
| 2026-05-04 18:40 | 50.03704 | 8.55382 | 580 ft | 163 kts | 250° |
| 2026-05-04 18:40 | 50.03288 | 8.53753 | 1253 ft | 168 kts | 250° |
| 2026-05-04 18:40 | 50.02823 | 8.52070 | 1957 ft | 176 kts | 248° |
| 2026-05-04 18:40 | 50.02392 | 8.50271 | 2639 ft | 182 kts | 253° |
| 2026-05-04 18:41 | 50.01659 | 8.48676 | 3289 ft | 193 kts | 214° |
| 2026-05-04 18:41 | 50.00399 | 8.47840 | 3978 ft | 206 kts | 193° |
| 2026-05-04 18:41 | 49.98946 | 8.47575 | 4700 ft | 219 kts | 187° |
| 2026-05-04 18:41 | 49.97383 | 8.47305 | 5433 ft | 236 kts | 188° |
| 2026-05-04 18:42 | 49.95754 | 8.46909 | 6317 ft | 245 kts | 194° |
| 2026-05-04 18:42 | 49.94104 | 8.46175 | 7234 ft | 250 kts | 197° |
| 2026-05-04 18:42 | 49.92455 | 8.45380 | 8219 ft | 250 kts | 201° |
| 2026-05-04 18:42 | 49.91063 | 8.43906 | 9198 ft | 250 kts | 232° |
| 2026-05-04 18:43 | 49.90368 | 8.41454 | 10133 ft | 256 kts | 260° |
| 2026-05-04 18:43 | 49.90489 | 8.38692 | 11009 ft | 264 kts | 286° |
| 2026-05-04 18:43 | 49.91433 | 8.36252 | 11860 ft | 273 kts | 313° |
| 2026-05-04 18:43 | 49.93072 | 8.34636 | 12281 ft | 299 kts | 338° |
| 2026-05-04 18:44 | 49.95159 | 8.33611 | 12677 ft | 323 kts | 340° |
| 2026-05-04 18:44 | 49.96599 | 8.32848 | 13078 ft | 334 kts | 338° |
| 2026-05-04 18:44 | 49.99548 | 8.31076 | 14084 ft | 351 kts | 335° |
| 2026-05-04 18:44 | 50.01841 | 8.29610 | 14838 ft | 364 kts | 336° |
| 2026-05-04 18:45 | 50.04312 | 8.28608 | 15590 ft | 379 kts | 351° |
| 2026-05-04 18:45 | 50.07011 | 8.28667 | 16354 ft | 394 kts | 7° |
| 2026-05-04 18:45 | 50.09685 | 8.29767 | 17115 ft | 403 kts | 18° |
| 2026-05-04 18:45 | 50.12324 | 8.31317 | 17870 ft | 409 kts | 20° |
| 2026-05-04 18:46 | 50.14909 | 8.33205 | 18657 ft | 415 kts | 27° |
| 2026-05-04 18:46 | 50.17416 | 8.35427 | 19468 ft | 420 kts | 30° |
| 2026-05-04 18:46 | 50.19913 | 8.37814 | 20286 ft | 425 kts | 31° |
| 2026-05-04 18:46 | 50.22444 | 8.40285 | 21114 ft | 430 kts | 31° |
| 2026-05-04 18:47 | 50.24982 | 8.42764 | 21940 ft | 434 kts | 31° |
| 2026-05-04 18:47 | 50.27529 | 8.45246 | 22761 ft | 437 kts | 31° |
| 2026-05-04 18:47 | 50.30133 | 8.47776 | 23600 ft | 438 kts | 31° |
| 2026-05-04 18:47 | 50.32694 | 8.50263 | 24399 ft | 439 kts | 31° |
| 2026-05-04 18:48 | 50.35295 | 8.52791 | 25187 ft | 440 kts | 31° |
| 2026-05-04 18:48 | 50.37879 | 8.55306 | 25935 ft | 441 kts | 30° |
| 2026-05-04 18:48 | 50.40486 | 8.57845 | 26649 ft | 441 kts | 30° |
| 2026-05-04 18:48 | 50.43111 | 8.60406 | 27169 ft | 446 kts | 30° |
| 2026-05-04 18:49 | 50.45746 | 8.62977 | 27578 ft | 452 kts | 30° |
| 2026-05-04 18:49 | 50.48421 | 8.65589 | 27882 ft | 461 kts | 31° |
| 2026-05-04 18:49 | 50.51185 | 8.68330 | 27958 ft | 476 kts | 31° |
| 2026-05-04 18:49 | 50.54012 | 8.71150 | 27967 ft | 486 kts | 31° |
| 2026-05-04 18:50 | 50.56856 | 8.73981 | 27957 ft | 484 kts | 31° |
| 2026-05-04 18:50 | 50.59700 | 8.76802 | 27960 ft | 480 kts | 31° |
| 2026-05-04 18:50 | 50.62523 | 8.79595 | 27960 ft | 480 kts | 31° |
| 2026-05-04 18:50 | 50.65344 | 8.82382 | 27955 ft | 480 kts | 31° |
| 2026-05-04 18:51 | 50.68200 | 8.85204 | 27961 ft | 480 kts | 31° |
| 2026-05-04 18:51 | 50.71005 | 8.87979 | 27955 ft | 480 kts | 31° |
| 2026-05-04 18:51 | 50.73843 | 8.90789 | 27955 ft | 479 kts | 31° |
| 2026-05-04 18:51 | 50.76640 | 8.93563 | 27954 ft | 479 kts | 31° |
| 2026-05-04 18:52 | 50.79465 | 8.96369 | 28027 ft | 477 kts | 31° |
| 2026-05-04 18:52 | 50.82298 | 8.99058 | 28566 ft | 473 kts | 26° |
| 2026-05-04 18:52 | 50.85230 | 9.01391 | 29126 ft | 474 kts | 23° |
| 2026-05-04 18:52 | 50.88205 | 9.03544 | 29654 ft | 476 kts | 21° |
| 2026-05-04 18:53 | 50.91244 | 9.05671 | 30150 ft | 478 kts | 21° |
| 2026-05-04 18:53 | 50.94265 | 9.07772 | 30641 ft | 479 kts | 21° |
| 2026-05-04 18:53 | 50.97346 | 9.09924 | 31087 ft | 482 kts | 21° |
| 2026-05-04 18:53 | 51.00382 | 9.12057 | 31496 ft | 485 kts | 21° |
| 2026-05-04 18:54 | 51.03476 | 9.14242 | 31896 ft | 487 kts | 21° |
| 2026-05-04 18:54 | 51.06557 | 9.16426 | 32285 ft | 490 kts | 21° |
| 2026-05-04 18:54 | 51.09667 | 9.18637 | 32675 ft | 492 kts | 21° |
| 2026-05-04 18:54 | 51.12807 | 9.20876 | 33068 ft | 494 kts | 21° |
| 2026-05-04 18:55 | 51.15917 | 9.23096 | 33453 ft | 495 kts | 21° |
| 2026-05-04 18:55 | 51.22209 | 9.27597 | 34237 ft | 497 kts | 21° |
| 2026-05-04 18:55 | 51.25383 | 9.29872 | 34628 ft | 498 kts | 21° |
| 2026-05-04 18:56 | 51.28545 | 9.32141 | 34909 ft | 501 kts | 21° |
| 2026-05-04 18:56 | 51.31716 | 9.34418 | 34964 ft | 508 kts | 21° |
| 2026-05-04 18:56 | 51.38242 | 9.39115 | 34980 ft | 521 kts | 21° |
| 2026-05-04 18:57 | 51.44844 | 9.43891 | 34979 ft | 519 kts | 21° |
| 2026-05-04 18:57 | 51.51378 | 9.48632 | 34983 ft | 518 kts | 21° |
| 2026-05-04 18:58 | 51.57942 | 9.53407 | 34985 ft | 519 kts | 21° |
| 2026-05-04 18:58 | 51.64489 | 9.58184 | 34978 ft | 519 kts | 20° |
| 2026-05-04 18:59 | 51.71091 | 9.63015 | 34975 ft | 520 kts | 21° |
| 2026-05-04 18:59 | 51.77628 | 9.67855 | 34975 ft | 520 kts | 22° |
| 2026-05-04 19:00 | 51.84188 | 9.72795 | 34972 ft | 521 kts | 21° |
| 2026-05-04 19:00 | 51.90753 | 9.77689 | 34967 ft | 520 kts | 21° |
| 2026-05-04 19:01 | 51.97317 | 9.82562 | 34969 ft | 520 kts | 21° |
| 2026-05-04 19:01 | 52.03909 | 9.87463 | 34958 ft | 520 kts | 21° |
| 2026-05-04 19:02 | 52.10464 | 9.92354 | 34958 ft | 520 kts | 21° |
| 2026-05-04 19:02 | 52.17068 | 9.97301 | 34955 ft | 520 kts | 21° |
| 2026-05-04 19:03 | 52.23627 | 10.02229 | 34952 ft | 520 kts | 21° |
| 2026-05-04 19:03 | 52.30181 | 10.07168 | 34956 ft | 520 kts | 21° |
| 2026-05-04 19:04 | 52.36698 | 10.12096 | 34948 ft | 520 kts | 21° |
| 2026-05-04 19:04 | 52.43297 | 10.17101 | 34956 ft | 521 kts | 21° |
| 2026-05-04 19:05 | 52.49813 | 10.22063 | 34971 ft | 520 kts | 21° |
| 2026-05-04 19:05 | 52.56386 | 10.27082 | 34950 ft | 520 kts | 21° |
| 2026-05-04 19:06 | 52.62926 | 10.32091 | 34945 ft | 520 kts | 20° |
| 2026-05-04 19:06 | 52.69480 | 10.37130 | 34956 ft | 520 kts | 20° |
| 2026-05-04 19:07 | 52.76016 | 10.42171 | 34959 ft | 519 kts | 20° |
| 2026-05-04 19:07 | 52.82508 | 10.47194 | 34949 ft | 519 kts | 20° |
| 2026-05-04 19:08 | 52.89070 | 10.52288 | 34950 ft | 520 kts | 20° |
| 2026-05-04 19:08 | 52.95587 | 10.57364 | 34960 ft | 521 kts | 20° |
| 2026-05-04 19:09 | 53.02101 | 10.62458 | 34960 ft | 518 kts | 20° |
| 2026-05-04 19:09 | 53.08622 | 10.67602 | 34961 ft | 519 kts | 21° |
| 2026-05-04 19:10 | 53.15130 | 10.72839 | 34959 ft | 518 kts | 21° |
| 2026-05-04 19:10 | 53.21585 | 10.77986 | 34968 ft | 517 kts | 21° |
| 2026-05-04 19:11 | 53.28088 | 10.83146 | 34965 ft | 515 kts | 21° |
| 2026-05-04 19:11 | 53.34552 | 10.88282 | 34973 ft | 516 kts | 20° |
| 2026-05-04 19:12 | 53.44244 | 10.96018 | 34968 ft | 514 kts | 20° |
| 2026-05-04 19:13 | 53.50667 | 11.01166 | 34972 ft | 513 kts | 20° |
| 2026-05-04 19:13 | 53.57061 | 11.06312 | 34985 ft | 503 kts | 20° |
| 2026-05-04 19:13 | 53.60198 | 11.08846 | 34688 ft | 500 kts | 20° |
| 2026-05-04 19:14 | 53.63298 | 11.11349 | 34209 ft | 496 kts | 20° |
| 2026-05-04 19:14 | 53.66408 | 11.13866 | 33729 ft | 490 kts | 20° |
| 2026-05-04 19:14 | 53.69449 | 11.16331 | 33250 ft | 486 kts | 20° |
| 2026-05-04 19:14 | 53.72472 | 11.18784 | 32782 ft | 484 kts | 20° |
| 2026-05-04 19:15 | 53.75500 | 11.21244 | 32306 ft | 483 kts | 20° |
| 2026-05-04 19:15 | 53.78512 | 11.23692 | 31831 ft | 484 kts | 20° |
| 2026-05-04 19:15 | 53.81529 | 11.26150 | 31358 ft | 484 kts | 20° |
| 2026-05-04 19:15 | 53.84568 | 11.28641 | 30874 ft | 480 kts | 20° |
| 2026-05-04 19:16 | 53.87489 | 11.31200 | 30400 ft | 478 kts | 22° |
| 2026-05-04 19:16 | 53.90385 | 11.33882 | 29863 ft | 477 kts | 23° |
| 2026-05-04 19:16 | 53.93291 | 11.36640 | 29299 ft | 473 kts | 24° |
| 2026-05-04 19:16 | 53.96138 | 11.39364 | 28809 ft | 468 kts | 24° |
| 2026-05-04 19:17 | 53.98925 | 11.42034 | 28284 ft | 465 kts | 24° |
| 2026-05-04 19:17 | 54.01734 | 11.44723 | 27744 ft | 461 kts | 24° |
| 2026-05-04 19:17 | 54.04518 | 11.47387 | 27269 ft | 456 kts | 24° |
| 2026-05-04 19:17 | 54.07231 | 11.49984 | 26806 ft | 451 kts | 24° |
| 2026-05-04 19:18 | 54.09935 | 11.52575 | 26344 ft | 446 kts | 24° |
| 2026-05-04 19:18 | 54.12615 | 11.55146 | 25880 ft | 441 kts | 24° |
| 2026-05-04 19:18 | 54.15290 | 11.57717 | 25411 ft | 436 kts | 24° |
| 2026-05-04 19:18 | 54.17909 | 11.60236 | 24953 ft | 433 kts | 24° |
| 2026-05-04 19:19 | 54.20500 | 11.62732 | 24442 ft | 430 kts | 24° |
| 2026-05-04 19:19 | 54.23092 | 11.65232 | 23882 ft | 428 kts | 25° |
| 2026-05-04 19:19 | 54.25672 | 11.67762 | 23302 ft | 427 kts | 26° |
| 2026-05-04 19:19 | 54.28205 | 11.70270 | 22725 ft | 425 kts | 26° |
| 2026-05-04 19:20 | 54.30759 | 11.72782 | 22156 ft | 423 kts | 25° |
| 2026-05-04 19:20 | 54.33304 | 11.75268 | 21572 ft | 421 kts | 25° |
| 2026-05-04 19:20 | 54.35841 | 11.77740 | 20997 ft | 420 kts | 25° |
| 2026-05-04 19:20 | 54.38337 | 11.80168 | 20422 ft | 418 kts | 25° |
| 2026-05-04 19:21 | 54.40845 | 11.82612 | 19847 ft | 416 kts | 26° |
| 2026-05-04 19:21 | 54.43371 | 11.85076 | 19271 ft | 414 kts | 26° |
| 2026-05-04 19:21 | 54.45836 | 11.87485 | 18697 ft | 412 kts | 26° |
| 2026-05-04 19:21 | 54.48299 | 11.89895 | 18133 ft | 410 kts | 26° |
| 2026-05-04 19:22 | 54.50767 | 11.92315 | 17559 ft | 408 kts | 26° |
| 2026-05-04 19:22 | 54.53229 | 11.94731 | 16977 ft | 405 kts | 26° |
| 2026-05-04 19:22 | 54.55672 | 11.97132 | 16403 ft | 403 kts | 26° |
| 2026-05-04 19:22 | 54.58071 | 11.99495 | 15833 ft | 400 kts | 26° |
| 2026-05-04 19:23 | 54.60458 | 12.01848 | 15309 ft | 396 kts | 26° |
| 2026-05-04 19:23 | 54.62851 | 12.04209 | 14794 ft | 392 kts | 26° |
| 2026-05-04 19:23 | 54.65183 | 12.06514 | 14303 ft | 388 kts | 26° |
| 2026-05-04 19:23 | 54.67506 | 12.08815 | 13857 ft | 382 kts | 26° |
| 2026-05-04 19:24 | 54.69788 | 12.11078 | 13416 ft | 377 kts | 26° |
| 2026-05-04 19:24 | 54.72041 | 12.13313 | 12977 ft | 372 kts | 26° |
| 2026-05-04 19:24 | 54.74242 | 12.15502 | 12650 ft | 365 kts | 26° |
| 2026-05-04 19:24 | 54.76440 | 12.17687 | 12386 ft | 360 kts | 26° |
| 2026-05-04 19:25 | 54.78599 | 12.19836 | 12184 ft | 361 kts | 26° |
| 2026-05-04 19:25 | 54.80766 | 12.21995 | 12002 ft | 360 kts | 26° |
| 2026-05-04 19:25 | 54.82934 | 12.24161 | 11820 ft | 359 kts | 26° |
| 2026-05-04 19:25 | 54.85083 | 12.26309 | 11638 ft | 359 kts | 26° |
| 2026-05-04 19:26 | 54.87226 | 12.28458 | 11505 ft | 347 kts | 26° |
| 2026-05-04 19:26 | 54.89260 | 12.30502 | 11419 ft | 335 kts | 26° |
| 2026-05-04 19:26 | 54.91275 | 12.32524 | 11339 ft | 334 kts | 25° |
| 2026-05-04 19:26 | 54.93270 | 12.34525 | 11256 ft | 334 kts | 25° |
| 2026-05-04 19:27 | 54.95269 | 12.36536 | 11172 ft | 332 kts | 25° |
| 2026-05-04 19:27 | 54.97287 | 12.38567 | 11073 ft | 333 kts | 25° |
| 2026-05-04 19:27 | 54.99283 | 12.40579 | 10919 ft | 332 kts | 25° |
| 2026-05-04 19:27 | 55.01245 | 12.42562 | 10765 ft | 331 kts | 25° |
| 2026-05-04 19:28 | 55.03231 | 12.44569 | 10608 ft | 330 kts | 25° |
| 2026-05-04 19:28 | 55.05229 | 12.46590 | 10446 ft | 329 kts | 25° |
| 2026-05-04 19:28 | 55.07205 | 12.48592 | 10287 ft | 328 kts | 25° |
| 2026-05-04 19:28 | 55.09159 | 12.50574 | 10059 ft | 328 kts | 25° |
| 2026-05-04 19:29 | 55.11135 | 12.52582 | 9800 ft | 326 kts | 25° |
| 2026-05-04 19:29 | 55.13077 | 12.54556 | 9541 ft | 323 kts | 25° |
| 2026-05-04 19:29 | 55.14982 | 12.56496 | 9283 ft | 317 kts | 25° |
| 2026-05-04 19:29 | 55.16868 | 12.58419 | 9053 ft | 309 kts | 25° |
| 2026-05-04 19:30 | 55.18675 | 12.60266 | 8979 ft | 297 kts | 25° |
| 2026-05-04 19:30 | 55.20470 | 12.62100 | 8748 ft | 300 kts | 25° |
| 2026-05-04 19:30 | 55.22278 | 12.63943 | 8353 ft | 301 kts | 25° |
| 2026-05-04 19:30 | 55.24117 | 12.65651 | 7983 ft | 296 kts | 22° |
| 2026-05-04 19:31 | 55.25924 | 12.67141 | 7874 ft | 287 kts | 20° |
| 2026-05-04 19:31 | 55.27749 | 12.68577 | 7769 ft | 287 kts | 20° |
| 2026-05-04 19:31 | 55.29563 | 12.69984 | 7628 ft | 287 kts | 20° |
| 2026-05-04 19:31 | 55.31383 | 12.71392 | 7458 ft | 284 kts | 20° |
| 2026-05-04 19:32 | 55.33196 | 12.72792 | 7286 ft | 283 kts | 20° |
| 2026-05-04 19:32 | 55.34990 | 12.74181 | 7116 ft | 281 kts | 20° |
| 2026-05-04 19:32 | 55.36784 | 12.75571 | 6883 ft | 282 kts | 20° |
| 2026-05-04 19:32 | 55.38555 | 12.76946 | 6622 ft | 279 kts | 20° |
| 2026-05-04 19:33 | 55.40314 | 12.78313 | 6364 ft | 278 kts | 20° |
| 2026-05-04 19:33 | 55.42091 | 12.79692 | 6103 ft | 275 kts | 20° |
| 2026-05-04 19:33 | 55.43830 | 12.81047 | 5835 ft | 274 kts | 20° |
| 2026-05-04 19:33 | 55.45549 | 12.82385 | 5559 ft | 273 kts | 20° |
| 2026-05-04 19:34 | 55.47289 | 12.83742 | 5276 ft | 271 kts | 20° |
| 2026-05-04 19:34 | 55.49009 | 12.85084 | 5009 ft | 269 kts | 20° |
| 2026-05-04 19:34 | 55.50698 | 12.86405 | 4858 ft | 269 kts | 20° |
| 2026-05-04 19:34 | 55.52410 | 12.87743 | 4722 ft | 268 kts | 20° |
| 2026-05-04 19:35 | 55.54121 | 12.89082 | 4599 ft | 267 kts | 20° |
| 2026-05-04 19:35 | 55.55813 | 12.90408 | 4468 ft | 264 kts | 20° |
| 2026-05-04 19:35 | 55.57454 | 12.91697 | 4318 ft | 254 kts | 20° |
| 2026-05-04 19:35 | 55.59034 | 12.92939 | 4179 ft | 245 kts | 19° |
| 2026-05-04 19:36 | 55.60563 | 12.94139 | 4058 ft | 238 kts | 19° |
| 2026-05-04 19:36 | 55.62059 | 12.95314 | 4000 ft | 233 kts | 19° |
| 2026-05-04 19:36 | 55.63533 | 12.96471 | 4000 ft | 232 kts | 19° |
| 2026-05-04 19:36 | 55.65012 | 12.97635 | 3864 ft | 236 kts | 19° |
| 2026-05-04 19:37 | 55.66506 | 12.98810 | 3513 ft | 236 kts | 19° |
| 2026-05-04 19:37 | 55.67979 | 12.99975 | 3297 ft | 230 kts | 19° |
| 2026-05-04 19:37 | 55.69441 | 13.01137 | 3096 ft | 226 kts | 19° |
| 2026-05-04 19:37 | 55.70834 | 13.02249 | 2898 ft | 219 kts | 19° |
| 2026-05-04 19:38 | 55.72248 | 13.02965 | 2692 ft | 203 kts | 358° |
| 2026-05-04 19:38 | 55.73613 | 13.03002 | 2729 ft | 196 kts | 355° |
| 2026-05-04 19:38 | 55.74987 | 13.02994 | 2891 ft | 198 kts | 355° |
| 2026-05-04 19:38 | 55.76266 | 13.02387 | 2954 ft | 193 kts | 320° |
| 2026-05-04 19:39 | 55.76965 | 13.00414 | 2967 ft | 191 kts | 279° |
| 2026-05-04 19:39 | 55.76911 | 12.98058 | 2971 ft | 194 kts | 266° |
| 2026-05-04 19:39 | 55.76735 | 12.95701 | 2971 ft | 191 kts | 265° |
| 2026-05-04 19:39 | 55.76556 | 12.93370 | 2962 ft | 190 kts | 265° |
| 2026-05-04 19:40 | 55.76374 | 12.91024 | 2967 ft | 194 kts | 265° |
| 2026-05-04 19:40 | 55.76176 | 12.88664 | 2953 ft | 194 kts | 258° |
| 2026-05-04 19:40 | 55.75392 | 12.86687 | 2968 ft | 206 kts | 222° |
| 2026-05-04 19:40 | 55.74291 | 12.85106 | 2956 ft | 204 kts | 226° |
| 2026-05-04 19:41 | 55.73216 | 12.83412 | 2780 ft | 206 kts | 227° |
| 2026-05-04 19:41 | 55.72164 | 12.81743 | 2512 ft | 205 kts | 226° |
| 2026-05-04 19:41 | 55.71094 | 12.80064 | 2255 ft | 203 kts | 226° |
| 2026-05-04 19:41 | 55.70047 | 12.78430 | 1980 ft | 200 kts | 226° |
| 2026-05-04 19:42 | 55.69015 | 12.76821 | 1670 ft | 197 kts | 226° |
| 2026-05-04 19:42 | 55.68016 | 12.75269 | 1451 ft | 183 kts | 226° |
| 2026-05-04 19:42 | 55.67078 | 12.73809 | 1198 ft | 175 kts | 226° |
| 2026-05-04 19:42 | 55.66199 | 12.72445 | 1021 ft | 161 kts | 226° |
| 2026-05-04 19:43 | 55.65382 | 12.71175 | 797 ft | 153 kts | 226° |
| 2026-05-04 19:43 | 55.64629 | 12.70011 | 599 ft | 140 kts | 226° |
| 2026-05-04 19:43 | 55.63918 | 12.68901 | 403 ft | 134 kts | 225° |
| 2026-05-04 19:43 | 55.63228 | 12.67834 | 233 ft | 128 kts | 225° |
| 2026-05-04 19:44 | 55.62550 | 12.66775 | 60 ft | 133 kts | 225° |
| 2026-05-04 19:44 | 55.61901 | 12.65766 | 16 ft | 106 kts | 222° |
| 2026-05-04 19:44 | 55.61509 | 12.65157 | 17 ft | 47 kts | 222° |
| 2026-05-04 19:44 | 55.61306 | 12.64812 | 17 ft | 34 kts | 234° |
| 2026-05-04 19:45 | 55.61237 | 12.64539 | 17 ft | 19 kts | 253° |
| 2026-05-04 19:45 | 55.61197 | 12.64321 | 17 ft | 15 kts | 252° |
| 2026-05-04 19:45 | 55.61194 | 12.64161 | 17 ft | 11 kts | 299° |
| 2026-05-04 19:45 | 55.61245 | 12.64105 | 18 ft | 7 kts | 354° |
| 2026-05-04 19:46 | 55.61296 | 12.64131 | 18 ft | 8 kts | 30° |
| 2026-05-04 19:46 | 55.61352 | 12.64195 | 18 ft | 11 kts | 33° |
| 2026-05-04 19:46 | 55.61429 | 12.64283 | 18 ft | 15 kts | 33° |
| 2026-05-04 19:46 | 55.61530 | 12.64398 | 17 ft | 19 kts | 33° |
| 2026-05-04 19:47 | 55.61647 | 12.64533 | 17 ft | 20 kts | 33° |
| 2026-05-04 19:47 | 55.61765 | 12.64669 | 17 ft | 20 kts | 33° |
| 2026-05-04 19:47 | 55.61868 | 12.64789 | 17 ft | 13 kts | 34° |
| 2026-05-04 19:47 | 55.61944 | 12.64875 | 17 ft | 12 kts | 33° |
| 2026-05-04 19:48 | 55.62019 | 12.64960 | 17 ft | 12 kts | 33° |
| 2026-05-04 19:48 | 55.62085 | 12.65036 | 17 ft | 7 kts | 34° |
| 2026-05-04 19:48 | 55.62115 | 12.65073 | 17 ft | 3 kts | 34° |
| 2026-05-04 19:48 | 55.62120 | 12.65079 | 17 ft | 0 kts | 34° |
| 2026-05-04 19:50 | 55.62121 | 12.65080 | 17 ft | 0 kts | 34° |
| 2026-05-04 19:50 | 55.62128 | 12.65089 | 17 ft | 3 kts | 34° |
| 2026-05-04 19:50 | 55.62165 | 12.65132 | 17 ft | 8 kts | 33° |
| 2026-05-04 19:50 | 55.62217 | 12.65185 | 18 ft | 8 kts | 21° |
| 2026-05-04 19:51 | 55.62274 | 12.65200 | 19 ft | 8 kts | 4° |
| 2026-05-04 19:51 | 55.62323 | 12.65203 | 20 ft | 5 kts | 350° |
| 2026-05-04 19:51 | 55.62349 | 12.65165 | 20 ft | 4 kts | 294° |
| 2026-05-04 19:51 | 55.62355 | 12.65126 | 20 ft | 2 kts | 281° |
| 2026-05-04 19:52 | 55.62358 | 12.65097 | 20 ft | 2 kts | 279° |
| 2026-05-04 19:52 | 55.62360 | 12.65068 | 20 ft | 1 kts | 277° |
| 2026-05-04 19:52 | 55.62360 | 12.65064 | 20 ft | 0 kts | 277° |
| 2026-05-04 19:52 | 55.62361 | 12.65060 | 20 ft | 0 kts | 277° |